Time;durP1;ratioP1;P1;durP2;ratioP2;P2;SDS_P1;SDS_P2;PMS_P1;PMS_P2;Temp;Humidity;BMP_temperature;BMP_pressure;BME280_temperature;BME280_humidity;BME280_pressure;Samples;Min_cycle;Max_cycle;Signal;HPM_P1;HPM_P2
2022/09/02 00:00:54;;;;;;;;;7.25;7.25;;;;;25.71;35.65;100802.56;5051374;28;45433;-49
2022/09/02 00:03:19;;;;;;;;;8.25;7.75;;;;;25.69;35.43;100799.19;5048112;28;45841;-50
2022/09/02 00:05:45;;;;;;;;;11.75;8.00;;;;;25.69;35.48;100799.19;5036366;28;45255;-48
2022/09/02 00:08:11;;;;;;;;;8.25;7.00;;;;;25.69;35.23;100790.41;5036148;28;45377;-51
2022/09/02 00:10:42;;;;;;;;;9.00;7.50;;;;;25.67;34.97;100784.34;5057791;28;45177;-50
2022/09/02 00:13:10;;;;;;;;;11.00;9.00;;;;;25.62;35.11;100782.94;5050702;28;45397;-49
2022/09/02 00:15:36;;;;;;;;;7.75;7.75;;;;;25.67;35.27;100779.03;5035149;28;45418;-49
2022/09/02 00:18:02;;;;;;;;;8.25;8.25;;;;;25.67;35.40;100789.66;5035453;28;45595;-50
2022/09/02 00:20:29;;;;;;;;;9.25;7.75;;;;;25.65;35.59;100781.84;5034586;28;46437;-49
2022/09/02 00:22:55;;;;;;;;;9.00;8.50;;;;;25.67;35.75;100776.41;5034706;28;45398;-49
2022/09/02 00:25:22;;;;;;;;;8.25;8.00;;;;;25.66;35.77;100772.91;5034663;28;45402;-50
2022/09/02 00:27:47;;;;;;;;;8.00;8.00;;;;;25.66;35.62;100766.75;5035956;28;45609;-49
2022/09/02 00:30:13;;;;;;;;;8.50;8.00;;;;;25.66;35.08;100766.75;5032911;28;46870;-50
2022/09/02 00:32:39;;;;;;;;;8.00;6.50;;;;;25.66;35.46;100766.75;5037740;28;45244;-51
2022/09/02 00:35:05;;;;;;;;;9.25;8.25;;;;;25.64;35.28;100758.91;5036476;28;45412;-49
2022/09/02 00:37:30;;;;;;;;;8.25;8.25;;;;;25.65;35.65;100759.75;5035051;28;45354;-51
2022/09/02 00:39:56;;;;;;;;;11.75;10.00;;;;;25.62;35.60;100750.22;5034763;28;46021;-51
2022/09/02 00:42:23;;;;;;;;;11.00;9.50;;;;;25.63;35.73;100758.03;5034671;28;45277;-52
2022/09/02 00:44:49;;;;;;;;;12.00;10.75;;;;;25.62;35.66;100759.03;5033599;28;45467;-52
2022/09/02 00:47:15;;;;;;;;;10.00;8.25;;;;;25.61;35.21;100754.69;5034894;28;45597;-52
2022/09/02 00:49:46;;;;;;;;;8.00;7.25;;;;;25.59;35.63;100759.28;5033711;28;46071;-52
2022/09/02 00:52:16;;;;;;;;;10.75;8.50;;;;;25.58;35.39;100752.28;5041817;28;45268;-51
2022/09/02 00:54:57;;;;;;;;;8.75;8.25;;;;;25.57;35.63;100747.94;5062236;28;44778;-49
2022/09/02 00:57:29;;;;;;;;;10.50;9.00;;;;;25.56;35.81;100751.53;5038349;28;45343;-49
2022/09/02 00:59:57;;;;;;;;;13.00;9.00;;;;;25.56;35.27;100751.53;5036748;28;46346;-49
2022/09/02 01:02:24;;;;;;;;;9.25;8.00;;;;;25.53;35.27;100757.09;5037952;28;45255;-49
2022/09/02 01:04:54;;;;;;;;;9.75;9.75;;;;;25.51;35.66;100750.22;5038310;28;45369;-48
2022/09/02 01:07:21;;;;;;;;;9.00;9.00;;;;;25.49;35.98;100750.34;5038345;28;45545;-50
2022/09/02 01:09:47;;;;;;;;;8.00;8.00;;;;;25.50;36.15;100751.19;5038343;28;46199;-51
2022/09/02 01:12:15;;;;;;;;;11.25;8.00;;;;;25.49;35.49;100747.69;5038542;28;45370;-50
2022/09/02 01:14:40;;;;;;;;;11.25;9.50;;;;;25.49;36.07;100745.03;5040401;28;45513;-48
2022/09/02 01:17:06;;;;;;;;;7.75;7.75;;;;;25.47;36.19;100744.31;5054517;28;45282;-49
2022/09/02 01:19:42;;;;;;;;;8.00;8.00;;;;;25.46;36.20;100746.13;5061618;28;47659;-49
2022/09/02 01:22:20;;;;;;;;;8.00;8.00;;;;;25.48;36.28;100743.34;5043945;28;45873;-52
2022/09/02 01:24:46;;;;;;;;;9.25;8.50;;;;;25.45;36.02;100739.13;5055861;28;45173;-53
2022/09/02 01:27:15;;;;;;;;;8.75;7.75;;;;;25.48;35.94;100738.03;5065030;28;45392;-51
2022/09/02 01:29:41;;;;;;;;;9.00;8.25;;;;;25.50;36.03;100746.72;5043201;28;45940;-54
2022/09/02 01:32:06;;;;;;;;;6.25;6.25;;;;;25.52;35.97;100750.09;5038391;28;45330;-49
2022/09/02 01:34:32;;;;;;;;;8.75;8.75;;;;;25.55;35.88;100744.53;5036462;28;45308;-49
2022/09/02 01:36:57;;;;;;;;;8.00;8.00;;;;;25.50;36.35;100743.22;5038119;28;45432;-51
2022/09/02 01:39:22;;;;;;;;;8.00;7.50;;;;;25.51;36.25;100743.13;5037276;28;50471;-49
2022/09/02 01:41:48;;;;;;;;;9.50;7.50;;;;;25.50;35.91;100748.53;5037813;28;45377;-50
2022/09/02 01:44:16;;;;;;;;;14.25;9.00;;;;;25.47;36.49;100733.69;5036218;28;45678;-49
2022/09/02 01:46:42;;;;;;;;;7.00;7.00;;;;;25.45;36.55;100739.13;5038432;28;45570;-48
2022/09/02 01:49:07;;;;;;;;;10.00;10.00;;;;;25.46;35.99;100737.31;5038220;28;45960;-49
2022/09/02 01:51:32;;;;;;;;;8.00;8.00;;;;;25.45;36.27;100738.28;5037514;28;45244;-48
2022/09/02 01:53:58;;;;;;;;;9.50;9.00;;;;;25.45;36.71;100732.97;5038029;28;45440;-49
2022/09/02 01:56:23;;;;;;;;;5.25;5.25;;;;;25.44;36.00;100732.13;5046567;28;50680;-49
2022/09/02 01:58:48;;;;;;;;;8.75;8.75;;;;;25.43;36.07;100735.75;5054577;28;45957;-48
2022/09/02 02:01:14;;;;;;;;;10.50;9.50;;;;;25.43;36.78;100734.88;5057291;28;57953;-48
2022/09/02 02:03:39;;;;;;;;;6.75;6.75;;;;;25.44;36.22;100755.16;5060679;28;44876;-48
2022/09/02 02:06:08;;;;;;;;;10.50;8.75;;;;;25.47;36.77;100800.84;5042051;28;45307;-48
2022/09/02 02:08:34;;;;;;;;;8.50;7.75;;;;;25.51;36.19;100776.75;5037490;28;46926;-50
2022/09/02 02:10:59;;;;;;;;;9.00;9.00;;;;;25.51;36.46;100759.03;5052556;28;45665;-49
2022/09/02 02:13:25;;;;;;;;;9.00;9.00;;;;;25.54;36.34;100805.72;5064143;27;44679;-49
2022/09/02 02:15:50;;;;;;;;;7.25;7.25;;;;;25.55;36.34;100768.44;5065583;28;44812;-54
2022/09/02 02:18:16;;;;;;;;;9.50;8.00;;;;;25.55;36.09;100749.84;5064958;27;57900;-50
2022/09/02 02:20:41;;;;;;;;;9.00;8.00;;;;;25.57;36.68;100773.63;5063191;28;44621;-50
2022/09/02 02:23:07;;;;;;;;;10.25;8.00;;;;;25.59;36.25;100799.09;5055120;28;45349;-51
2022/09/02 02:25:33;;;;;;;;;8.75;7.75;;;;;25.59;36.52;100772.53;5063294;27;45605;-50
2022/09/02 02:27:58;;;;;;;;;7.75;7.75;;;;;25.60;36.79;100784.00;5063980;27;45182;-49
2022/09/02 02:30:23;;;;;;;;;8.00;8.00;;;;;25.61;36.61;100765.31;5043286;28;48361;-49
2022/09/02 02:32:49;;;;;;;;;9.00;9.00;;;;;25.61;36.24;100770.63;5038475;28;45406;-49
2022/09/02 02:35:17;;;;;;;;;11.00;9.00;;;;;25.63;36.11;100776.63;5036841;28;45461;-48
2022/09/02 02:37:44;;;;;;;;;9.00;9.00;;;;;25.63;36.64;100763.34;5037022;28;46198;-49
2022/09/02 02:40:10;;;;;;;;;6.00;5.25;;;;;25.65;36.32;100770.34;5036964;28;45338;-47
2022/09/02 02:42:37;;;;;;;;;9.00;8.50;;;;;25.67;36.38;100776.41;5037511;28;45833;-51
2022/09/02 02:45:03;;;;;;;;;7.75;7.00;;;;;25.67;36.65;100771.94;5054501;28;45223;-48
2022/09/02 02:47:28;;;;;;;;;9.00;9.00;;;;;25.69;36.58;100766.50;5049390;28;46309;-48
2022/09/02 02:49:54;;;;;;;;;8.00;8.00;;;;;25.70;36.73;100769.03;5038012;28;45425;-50
2022/09/02 02:52:19;;;;;;;;;7.50;7.50;;;;;25.71;36.47;100761.94;5061844;27;46871;-48
2022/09/02 02:54:44;;;;;;;;;7.25;7.25;;;;;25.71;36.17;100757.44;5050323;28;45648;-49
2022/09/02 02:57:12;;;;;;;;;9.00;9.00;;;;;25.72;36.19;100761.78;5042647;28;46153;-49
2022/09/02 02:59:37;;;;;;;;;9.00;9.00;;;;;25.73;36.18;100754.69;5040609;28;45306;-50
2022/09/02 03:02:05;;;;;;;;;10.00;8.25;;;;;25.73;36.28;100752.03;5040103;28;45700;-51
2022/09/02 03:04:30;;;;;;;;;9.00;8.50;;;;;25.73;36.32;100744.06;5043456;28;45368;-48
2022/09/02 03:06:56;;;;;;;;;9.50;8.00;;;;;25.74;36.33;100756.38;5042183;28;46183;-49
2022/09/02 03:09:21;;;;;;;;;8.50;7.00;;;;;25.74;36.51;100751.06;5056828;28;52335;-49
2022/09/02 03:11:47;;;;;;;;;10.25;9.00;;;;;25.73;36.62;100746.72;5046830;28;45311;-50
2022/09/02 03:14:13;;;;;;;;;9.00;9.00;;;;;25.73;36.51;100742.25;5038453;28;45467;-52
2022/09/02 03:16:38;;;;;;;;;10.50;10.50;;;;;25.75;35.99;100750.09;5036130;28;45796;-49
2022/09/02 03:19:04;;;;;;;;;10.75;10.25;;;;;25.74;36.57;100743.13;5036510;28;45419;-49
2022/09/02 03:21:29;;;;;;;;;11.00;11.00;;;;;25.74;36.64;100748.41;5037014;28;45390;-50
2022/09/02 03:23:55;;;;;;;;;15.00;12.25;;;;;25.75;36.39;100742.13;5036783;28;45378;-48
2022/09/02 03:26:23;;;;;;;;;14.75;13.25;;;;;25.73;36.52;100736.13;5038193;28;45444;-51
2022/09/02 03:28:49;;;;;;;;;14.50;14.25;;;;;25.75;36.63;100739.47;5034358;28;45383;-49
2022/09/02 03:31:18;;;;;;;;;14.75;14.50;;;;;25.74;36.68;100743.13;5036013;28;45279;-49
2022/09/02 03:33:43;;;;;;;;;15.00;14.25;;;;;25.74;36.82;100738.63;5034857;28;45575;-49
2022/09/02 03:36:20;;;;;;;;;14.00;14.00;;;;;25.73;36.92;100734.28;5036425;28;45443;-49
2022/09/02 03:38:46;;;;;;;;;17.25;14.00;;;;;25.72;36.73;100734.41;5035500;28;45788;-49
2022/09/02 03:41:11;;;;;;;;;15.75;15.75;;;;;25.73;36.69;100730.81;5035926;28;45366;-49
2022/09/02 03:43:36;;;;;;;;;16.00;16.00;;;;;25.73;36.94;100722.84;5034299;28;45806;-50
2022/09/02 03:46:01;;;;;;;;;16.75;14.75;;;;;25.74;36.49;100719.22;5036038;28;47591;-49
2022/09/02 03:48:29;;;;;;;;;18.50;16.50;;;;;25.73;36.69;100720.19;5035956;28;45335;-48
2022/09/02 03:50:54;;;;;;;;;18.00;16.25;;;;;25.72;36.53;100713.19;5036049;28;45228;-48
2022/09/02 03:53:19;;;;;;;;;16.00;15.50;;;;;25.72;36.39;100710.53;5043533;28;45326;-49
2022/09/02 03:55:45;;;;;;;;;16.75;15.25;;;;;25.72;37.20;100713.19;5062679;28;46201;-49
2022/09/02 03:58:11;;;;;;;;;16.25;16.25;;;;;25.71;37.08;100704.38;5056588;28;44728;-50
2022/09/02 04:00:37;;;;;;;;;17.25;15.25;;;;;25.72;36.77;100705.22;5050983;28;45280;-50
2022/09/02 04:03:03;;;;;;;;;17.50;16.25;;;;;25.71;37.38;100714.97;5049331;28;45328;-49
2022/09/02 04:05:29;;;;;;;;;17.00;16.50;;;;;25.72;36.89;100707.88;5035882;28;45268;-50
2022/09/02 04:07:56;;;;;;;;;16.75;15.25;;;;;25.71;36.90;100707.00;5034909;28;45334;-50
2022/09/02 04:10:22;;;;;;;;;16.25;14.50;;;;;25.71;37.52;100714.97;5035311;28;45288;-51
2022/09/02 04:12:48;;;;;;;;;18.50;16.75;;;;;25.71;37.29;100717.63;5048842;28;45543;-48
2022/09/02 04:15:14;;;;;;;;;19.50;16.25;;;;;25.71;37.51;100712.31;5052148;28;45702;-49
2022/09/02 04:17:41;;;;;;;;;15.25;15.25;;;;;25.72;37.18;100723.81;5035311;28;45348;-49
2022/09/02 04:20:10;;;;;;;;;17.00;16.25;;;;;25.71;37.47;100722.13;5035592;28;45738;-49
2022/09/02 04:22:35;;;;;;;;;14.50;14.50;;;;;25.71;37.33;100712.31;5035269;28;45299;-52
2022/09/02 04:25:03;;;;;;;;;17.50;12.50;;;;;25.72;37.28;100710.53;5034528;28;46527;-50
2022/09/02 04:27:28;;;;;;;;;16.00;15.25;;;;;25.72;37.49;100702.56;5036864;28;45561;-50
2022/09/02 04:29:55;;;;;;;;;15.25;14.25;;;;;25.72;37.39;100706.06;5038507;28;45305;-50
2022/09/02 04:32:20;;;;;;;;;15.75;14.25;;;;;25.72;37.76;100708.72;5039067;28;45717;-51
2022/09/02 04:34:46;;;;;;;;;15.00;14.00;;;;;25.73;37.69;100704.25;5037677;28;46299;-48
2022/09/02 04:37:12;;;;;;;;;13.25;12.50;;;;;25.71;37.90;100704.38;5038471;28;45429;-48
2022/09/02 04:39:38;;;;;;;;;13.75;13.00;;;;;25.70;37.89;100701.84;5038477;28;45407;-48
2022/09/02 04:42:03;;;;;;;;;14.25;13.00;;;;;25.71;38.46;100696.41;5036977;28;45358;-49
2022/09/02 04:44:28;;;;;;;;;12.00;12.00;;;;;25.68;38.07;100706.41;5038513;28;46141;-49
2022/09/02 04:46:54;;;;;;;;;14.00;12.00;;;;;25.67;38.39;100713.56;5038193;28;45265;-49
2022/09/02 04:49:19;;;;;;;;;10.67;10.67;;;;;25.67;38.46;100728.63;5047154;28;59231;-50
2022/09/02 04:51:44;;;;;;;;;13.25;12.50;;;;;25.67;38.39;100732.13;5051441;28;45565;-49
2022/09/02 04:54:10;;;;;;;;;11.25;11.25;;;;;25.68;39.08;100723.22;5061040;28;45858;-51
2022/09/02 04:56:37;;;;;;;;;14.75;11.25;;;;;25.68;39.27;100711.72;5062274;28;44767;-49
2022/09/02 04:59:02;;;;;;;;;13.00;12.50;;;;;25.68;38.67;100706.41;5046515;28;45357;-57
2022/09/02 05:01:31;;;;;;;;;15.00;12.25;;;;;25.67;39.22;100694.97;5040509;28;45496;-55
2022/09/02 05:03:57;;;;;;;;;14.25;12.75;;;;;25.67;39.65;100694.97;5038911;28;47014;-49
2022/09/02 05:06:26;;;;;;;;;15.25;13.00;;;;;25.66;39.62;100687.13;5041434;28;45308;-50
2022/09/02 05:08:53;;;;;;;;;10.25;10.25;;;;;25.65;39.56;100686.28;5064845;28;44781;-48
2022/09/02 05:11:21;;;;;;;;;11.00;9.75;;;;;25.63;40.12;100689.03;5045452;28;45332;-51
2022/09/02 05:13:50;;;;;;;;;13.25;11.25;;;;;25.61;40.37;100693.66;5036126;28;46236;-50
2022/09/02 05:16:21;;;;;;;;;10.75;10.75;;;;;25.58;40.76;100688.59;5037968;28;45413;-50
2022/09/02 05:18:46;;;;;;;;;11.00;11.00;;;;;25.59;40.90;100681.44;5037751;28;45342;-49
2022/09/02 05:21:12;;;;;;;;;11.75;10.50;;;;;25.58;40.87;100680.63;5038094;28;45382;-48
2022/09/02 05:23:38;;;;;;;;;12.00;10.50;;;;;25.57;41.08;100681.59;5037732;28;46849;-52
2022/09/02 05:26:06;;;;;;;;;12.50;10.50;;;;;25.57;41.26;100684.25;5037715;28;45476;-51
2022/09/02 05:28:32;;;;;;;;;14.25;12.00;;;;;25.57;40.97;100696.69;5036512;28;45306;-52
2022/09/02 05:31:09;;;;;;;;;9.75;8.75;;;;;25.55;41.35;100691.47;5037880;28;45360;-52
2022/09/02 05:33:37;;;;;;;;;13.75;11.50;;;;;25.54;40.87;100704.88;5045334;28;46332;-51
2022/09/02 05:36:04;;;;;;;;;11.00;11.00;;;;;25.52;40.85;100702.31;5058529;28;45251;-53
2022/09/02 05:38:30;;;;;;;;;11.00;11.00;;;;;25.54;41.10;100708.34;5048580;28;45279;-50
2022/09/02 05:40:56;;;;;;;;;10.00;10.00;;;;;25.54;40.96;100705.69;5047192;28;45402;-49
2022/09/02 05:43:21;;;;;;;;;11.00;11.00;;;;;25.54;40.78;100703.03;5056095;28;45902;-50
2022/09/02 05:45:47;;;;;;;;;12.50;10.50;;;;;25.55;41.04;100707.38;5055291;28;45269;-55
2022/09/02 05:54:27;;;;;;;;;10.25;9.00;;;;;25.50;41.08;100693.66;5065077;28;45659;-48
2022/09/02 05:56:55;;;;;;;;;11.00;11.00;;;;;25.50;41.52;100691.00;5043485;28;45352;-50
2022/09/02 05:59:22;;;;;;;;;9.00;9.00;;;;;25.50;41.23;100688.34;5037261;28;45362;-50
2022/09/02 06:01:49;;;;;;;;;10.25;10.00;;;;;25.48;41.52;100684.97;5037080;28;45466;-52
2022/09/02 06:04:15;;;;;;;;;12.00;10.75;;;;;25.47;41.20;100693.88;5036558;28;45242;-52
2022/09/02 06:06:41;;;;;;;;;10.50;10.25;;;;;25.44;41.24;100699.44;5041757;28;45789;-52
2022/09/02 06:09:08;;;;;;;;;10.50;10.00;;;;;25.45;41.07;100707.28;5037523;28;45333;-51
2022/09/02 06:11:38;;;;;;;;;10.75;10.25;;;;;25.44;40.88;100700.28;5035943;28;45296;-49
2022/09/02 06:14:07;;;;;;;;;10.00;10.00;;;;;25.44;41.41;100710.03;5036564;28;47498;-49
2022/09/02 06:16:33;;;;;;;;;11.50;11.50;;;;;25.45;41.50;100703.78;5036616;28;45189;-48
2022/09/02 06:18:59;;;;;;;;;13.75;9.75;;;;;25.41;41.50;100689.09;5036534;28;45769;-49
2022/09/02 06:21:24;;;;;;;;;11.00;11.00;;;;;25.38;41.24;100702.56;5039110;28;45443;-49
2022/09/02 06:23:50;;;;;;;;;12.50;11.00;;;;;25.36;41.44;100697.34;5036096;28;46993;-48
2022/09/02 06:26:16;;;;;;;;;13.00;9.75;;;;;25.35;41.58;100708.09;5035687;28;45406;-49
2022/09/02 06:28:43;;;;;;;;;10.50;10.50;;;;;25.35;41.00;100706.28;5037462;28;45319;-49
2022/09/02 06:31:17;;;;;;;;;12.00;11.25;;;;;25.29;41.79;100699.66;5041240;28;45418;-49
2022/09/02 06:33:44;;;;;;;;;13.00;12.00;;;;;25.28;41.05;100694.47;5037451;28;46356;-49
2022/09/02 06:36:12;;;;;;;;;13.25;10.25;;;;;25.26;41.01;100688.41;5036944;28;45417;-50
2022/09/02 06:38:41;;;;;;;;;9.00;9.00;;;;;25.24;41.14;100696.50;5035735;28;45379;-47
2022/09/02 06:41:07;;;;;;;;;12.00;10.75;;;;;25.21;41.78;100688.78;5033208;28;46195;-47
2022/09/02 06:43:32;;;;;;;;;16.00;11.25;;;;;25.24;41.19;100699.16;5034461;28;46900;-48
2022/09/02 06:45:58;;;;;;;;;10.00;10.00;;;;;25.24;40.95;100699.16;5035782;28;45420;-47
2022/09/02 06:48:24;;;;;;;;;13.75;11.75;;;;;25.27;41.01;100693.63;5034886;28;45177;-47
2022/09/02 06:50:49;;;;;;;;;9.25;9.25;;;;;25.29;40.97;100699.66;5035932;28;45378;-50
2022/09/02 06:53:16;;;;;;;;;14.25;12.75;;;;;25.28;41.41;100690.00;5035490;28;46219;-49
2022/09/02 06:55:43;;;;;;;;;11.25;9.75;;;;;25.34;40.86;100688.69;5034487;28;45421;-49
2022/09/02 06:58:10;;;;;;;;;13.50;13.50;;;;;25.36;41.43;100688.56;5036493;28;45594;-49
2022/09/02 07:00:36;;;;;;;;;9.50;8.50;;;;;25.37;41.30;100695.56;5036312;28;45638;-50
2022/09/02 07:05:47;;;;;;;;;11.75;10.00;;;;;25.40;40.59;100692.66;5047740;28;45405;-49
2022/09/02 07:08:12;;;;;;;;;9.75;8.75;;;;;25.40;40.67;100695.31;5061988;28;45371;-48
2022/09/02 07:10:39;;;;;;;;;14.00;10.00;;;;;25.40;41.01;100687.34;5046478;28;45351;-52
2022/09/02 07:13:05;;;;;;;;;10.00;10.00;;;;;25.39;40.97;100685.66;5035850;28;46880;-53
2022/09/02 07:15:31;;;;;;;;;11.00;11.00;;;;;25.41;40.48;100699.69;5035869;28;45666;-53
2022/09/02 07:17:57;;;;;;;;;10.75;10.00;;;;;25.40;40.72;100692.66;5034276;28;45415;-51
2022/09/02 07:20:22;;;;;;;;;1.50;1.50;;;;;25.40;40.84;100690.00;5036093;28;45598;-53
2022/09/02 07:22:51;;;;;;;;;10.50;10.50;;;;;25.40;41.07;100684.72;5035556;28;45360;-52
2022/09/02 07:25:17;;;;;;;;;9.75;9.25;;;;;25.39;41.01;100677.72;5034458;28;46036;-49
2022/09/02 07:27:43;;;;;;;;;9.50;9.50;;;;;25.40;40.99;100674.09;5035559;28;45342;-51
2022/09/02 07:30:11;;;;;;;;;12.50;11.50;;;;;25.38;40.39;100668.06;5036427;28;45449;-50
2022/09/02 07:32:36;;;;;;;;;11.75;9.75;;;;;25.35;40.57;100668.28;5036190;28;45308;-51
2022/09/02 07:35:04;;;;;;;;;10.50;10.50;;;;;25.29;40.46;100670.47;5046430;28;45283;-51
2022/09/02 07:37:30;;;;;;;;;10.75;10.00;;;;;25.29;40.78;100682.88;5063771;28;44796;-51
2022/09/02 07:39:55;;;;;;;;;8.00;8.00;;;;;25.27;40.90;100683.00;5036033;28;45552;-51
2022/09/02 07:42:21;;;;;;;;;11.75;11.00;;;;;25.25;40.91;100684.94;5035720;28;46175;-50
2022/09/02 07:44:46;;;;;;;;;11.75;10.75;;;;;25.23;40.39;100684.22;5035573;28;45401;-50
2022/09/02 07:47:12;;;;;;;;;10.50;9.50;;;;;25.24;40.22;100683.25;5035955;28;45460;-50
2022/09/02 07:49:37;;;;;;;;;11.25;9.25;;;;;25.25;40.55;100687.59;5035520;28;45440;-50
2022/09/02 07:52:02;;;;;;;;;11.00;9.00;;;;;25.26;40.23;100683.97;5035504;28;46236;-49
2022/09/02 07:54:30;;;;;;;;;8.25;8.25;;;;;25.24;40.54;100691.19;5035223;28;45518;-48
2022/09/02 07:56:56;;;;;;;;;14.75;12.25;;;;;25.24;40.41;100691.19;5034044;28;45804;-48
2022/09/02 07:59:21;;;;;;;;;11.50;9.50;;;;;25.24;40.35;100693.84;5035853;28;45256;-48
2022/09/02 08:01:47;;;;;;;;;10.00;10.00;;;;;25.24;39.86;100690.38;5038800;28;47168;-48
2022/09/02 08:04:14;;;;;;;;;13.00;10.00;;;;;25.27;40.00;100703.38;5039026;28;45974;-50
2022/09/02 08:06:40;;;;;;;;;13.50;10.50;;;;;25.28;39.83;100703.28;5039351;28;45300;-51
2022/09/02 08:09:11;;;;;;;;;13.00;11.75;;;;;25.28;40.42;100711.22;5039646;28;45401;-50
2022/09/02 08:11:39;;;;;;;;;10.00;9.50;;;;;25.29;39.57;100718.22;5037881;28;47223;-56
2022/09/02 08:14:08;;;;;;;;;11.50;10.50;;;;;25.29;39.96;100715.56;5039387;28;45342;-58
2022/09/02 08:16:34;;;;;;;;;11.00;9.75;;;;;25.28;39.96;100711.22;5039056;28;45492;-58
2022/09/02 08:18:59;;;;;;;;;10.75;10.75;;;;;25.31;39.28;100713.63;5039252;28;45252;-57
2022/09/02 08:21:24;;;;;;;;;11.00;10.25;;;;;25.31;39.39;100721.59;5038830;28;46103;-57
2022/09/02 08:23:50;;;;;;;;;13.00;10.50;;;;;25.32;39.59;100717.13;5038996;28;45386;-58
2022/09/02 08:26:17;;;;;;;;;9.75;9.75;;;;;25.32;39.08;100720.63;5038689;28;45326;-58
2022/09/02 08:28:42;;;;;;;;;14.00;10.50;;;;;25.34;39.57;100736.44;5048964;28;45301;-55
2022/09/02 08:31:08;;;;;;;;;9.25;9.25;;;;;25.34;39.73;100740.88;5058647;28;45366;-57
2022/09/02 08:33:34;;;;;;;;;10.75;10.00;;;;;25.35;39.51;100761.16;5062613;28;45033;-55
2022/09/02 11:54:10;;;;;;;;;18.00;16.75;;;;;25.54;42.09;100633.22;5773709;22;45286;-56
2022/09/02 11:56:40;;;;;;;;;11.75;11.25;;;;;25.54;42.40;100626.09;5049554;28;45358;-46
2022/09/02 11:59:07;;;;;;;;;17.25;17.00;;;;;25.54;42.53;100628.75;5038277;28;47191;-46
2022/09/02 12:01:37;;;;;;;;;18.50;16.50;;;;;25.54;42.06;100625.25;5041069;28;45727;-43
2022/09/02 12:04:19;;;;;;;;;15.25;15.25;;;;;25.55;42.54;100633.09;5042847;28;45454;-41
2022/09/02 12:07:05;;;;;;;;;20.00;16.00;;;;;25.56;41.93;100640.09;5039641;28;45404;-42
2022/09/02 12:09:50;;;;;;;;;17.00;17.00;;;;;25.56;42.49;100629.47;5042914;28;45249;-42
2022/09/02 12:12:36;;;;;;;;;15.75;14.00;;;;;25.56;42.78;100632.13;5038703;28;45466;-43
2022/09/02 12:15:04;;;;;;;;;14.00;14.00;;;;;25.57;42.71;100632.97;5040113;28;45291;-47
2022/09/02 12:17:56;;;;;;;;;18.00;15.50;;;;;25.57;42.34;100636.47;5058115;28;46190;-42
2022/09/02 12:20:37;;;;;;;;;19.75;16.00;;;;;25.56;42.50;100629.47;5037698;28;47133;-49
2022/09/02 12:23:04;;;;;;;;;16.25;14.00;;;;;25.56;42.10;100636.59;5036994;28;45790;-48
2022/09/02 12:25:32;;;;;;;;;14.25;14.25;;;;;25.56;42.44;100644.56;5036625;28;45367;-42
2022/09/02 12:28:24;;;;;;;;;15.00;15.00;;;;;25.56;42.08;100636.59;5036726;28;45365;-44
2022/09/02 12:31:00;;;;;;;;;14.00;14.00;;;;;25.54;42.35;100636.72;5036342;28;46991;-47
2022/09/02 12:33:34;;;;;;;;;16.75;14.25;;;;;25.50;42.50;100637.94;5037611;28;45292;-42
2022/09/02 12:36:01;;;;;;;;;12.00;12.00;;;;;25.48;41.94;100631.91;5040689;28;45372;-48
2022/09/02 12:38:31;;;;;;;;;16.25;13.50;;;;;25.48;42.40;100626.59;5042027;28;45385;-48
2022/09/02 12:41:20;;;;;;;;;12.25;11.25;;;;;25.44;42.21;100619.84;5046006;28;47451;-42
2022/09/02 12:43:52;;;;;;;;;15.75;13.00;;;;;25.42;42.12;100622.63;5044080;28;45772;-44
2022/09/02 12:46:20;;;;;;;;;11.75;10.75;;;;;25.40;42.11;100623.69;5046095;28;45267;-44
2022/09/02 12:48:58;;;;;;;;;13.00;11.50;;;;;25.38;41.94;100625.63;5045059;28;45767;-47
2022/09/02 12:52:01;;;;;;;;;11.00;10.00;;;;;25.35;42.70;100617.88;5041844;28;46208;-42
2022/09/02 12:54:41;;;;;;;;;13.25;11.25;;;;;25.34;42.64;100616.19;5038613;28;45275;-42
2022/09/02 12:57:08;;;;;;;;;17.75;16.25;;;;;25.31;42.27;100620.78;5039434;28;45341;-42
2022/09/02 12:59:37;;;;;;;;;15.50;12.75;;;;;25.29;42.09;100616.56;5039289;28;45520;-42
2022/09/02 13:02:15;;;;;;;;;12.00;11.75;;;;;25.23;42.76;100607.28;5039351;28;45351;-42
2022/09/02 13:05:14;;;;;;;;;10.50;10.50;;;;;25.20;42.84;100612.81;5042027;28;45782;-44
2022/09/02 13:07:58;;;;;;;;;9.75;9.75;;;;;25.17;42.81;100605.13;5038454;28;45360;-42
2022/09/02 13:10:50;;;;;;;;;9.50;9.00;;;;;25.14;42.39;100608.84;5039960;28;45594;-42
2022/09/02 13:13:18;;;;;;;;;11.00;11.00;;;;;25.12;42.49;100607.28;5039554;28;46904;-42
2022/09/02 13:15:56;;;;;;;;;12.25;10.25;;;;;25.11;42.52;100608.25;5039289;28;45335;-49
2022/09/02 13:19:00;;;;;;;;;11.50;11.50;;;;;25.15;42.92;100601.75;5050980;28;45247;-52
2022/09/02 13:22:00;;;;;;;;;9.25;9.25;;;;;25.18;43.09;100604.19;5056078;28;45761;-44
2022/09/02 13:24:44;;;;;;;;;11.00;11.00;;;;;25.17;43.06;100599.84;5046335;28;46256;-42
2022/09/02 13:27:51;;;;;;;;;11.00;10.00;;;;;25.17;42.48;100597.19;5040996;28;45373;-45
2022/09/02 13:30:20;;;;;;;;;9.00;8.25;;;;;25.20;43.00;100596.91;5034040;28;45370;-49
2022/09/02 13:32:55;;;;;;;;;11.00;11.00;;;;;25.22;42.60;100584.38;5043759;28;45282;-45
2022/09/02 13:35:25;;;;;;;;;11.00;9.50;;;;;25.26;43.09;100592.94;5039115;28;46342;-46
2022/09/02 13:37:58;;;;;;;;;12.75;12.75;;;;;25.27;42.86;100587.53;5041419;28;46299;-52
2022/09/02 13:40:27;;;;;;;;;14.00;13.50;;;;;25.30;43.14;100581.94;5036862;28;45343;-66
2022/09/02 13:43:14;;;;;;;;;13.25;11.25;;;;;25.34;43.21;100576.41;5038176;28;45260;-50
2022/09/02 13:45:41;;;;;;;;;15.75;13.00;;;;;25.38;43.37;100584.00;5039378;28;45965;-54
2022/09/02 13:48:10;;;;;;;;;14.50;13.25;;;;;25.42;43.08;100574.00;5039241;28;45702;-54
2022/09/02 13:50:41;;;;;;;;;14.00;14.00;;;;;25.45;42.77;100579.94;5052479;28;44776;-42
2022/09/02 13:53:07;;;;;;;;;12.75;12.00;;;;;25.44;42.78;100572.94;5050086;28;45156;-42
2022/09/02 13:55:34;;;;;;;;;12.50;12.00;;;;;25.46;43.40;100560.41;5037769;28;46466;-49
2022/09/02 13:58:05;;;;;;;;;15.00;12.00;;;;;25.50;43.40;100565.44;5038904;28;45348;-48
2022/09/02 14:00:39;;;;;;;;;14.00;13.00;;;;;25.50;43.13;100560.13;5044344;28;45252;-51
2022/09/02 14:03:06;;;;;;;;;15.00;14.00;;;;;25.49;42.85;100559.31;5042870;28;45320;-50
2022/09/02 14:05:34;;;;;;;;;14.25;13.75;;;;;25.47;43.00;100556.75;5040511;28;46225;-54
2022/09/02 14:08:04;;;;;;;;;18.50;14.25;;;;;25.45;43.77;100556.06;5045467;28;45444;-47
2022/09/02 14:10:33;;;;;;;;;10.25;10.25;;;;;25.50;43.59;100545.06;5049382;28;45234;-46
2022/09/02 14:13:02;;;;;;;;;16.00;13.25;;;;;25.52;43.46;100542.28;5044326;28;45335;-46
2022/09/02 14:15:32;;;;;;;;;12.25;10.75;;;;;25.51;43.45;100541.44;5041315;28;45209;-42
2022/09/02 14:18:07;;;;;;;;;15.75;14.75;;;;;25.49;43.37;100538.06;5044152;28;45890;-42
2022/09/02 14:20:33;;;;;;;;;12.25;12.25;;;;;25.47;43.61;100534.69;5051833;28;45332;-43
2022/09/02 14:22:59;;;;;;;;;11.00;10.00;;;;;25.43;43.60;100534.09;5045352;28;45370;-43
2022/09/02 14:25:28;;;;;;;;;11.25;11.25;;;;;25.40;43.49;100530.84;5041506;28;46590;-42
2022/09/02 14:27:59;;;;;;;;;6.50;6.50;;;;;25.38;43.54;100530.09;5042170;28;45856;-42
2022/09/02 14:30:39;;;;;;;;;12.00;11.75;;;;;25.34;43.03;100534.81;5043694;28;45295;-42
2022/09/02 14:33:39;;;;;;;;;12.25;10.75;;;;;25.30;42.81;100536.84;5039926;28;45235;-45
2022/09/02 14:36:28;;;;;;;;;9.25;8.25;;;;;25.27;42.95;100537.13;5036402;28;46640;-49
2022/09/02 14:38:56;;;;;;;;;11.50;10.25;;;;;25.21;43.11;100519.03;5044092;28;45228;-49
2022/09/02 14:41:24;;;;;;;;;10.50;8.00;;;;;25.23;43.05;100530.38;5043720;28;45431;-45
2022/09/02 14:43:58;;;;;;;;;9.25;7.00;;;;;25.25;43.44;100530.25;5038328;28;45537;-47
2022/09/02 14:46:27;;;;;;;;;12.25;9.00;;;;;25.26;43.46;100524.81;5037969;28;45378;-43
2022/09/02 14:49:06;;;;;;;;;10.00;8.75;;;;;25.24;42.97;100532.06;5037622;28;45481;-42